sensor_id;sensor_type;location;lat;lon;timestamp;pressure;altitude;pressure_sealevel;temperature;humidity
13952;BME280;39535;52.192;9.886;2023-04-01T00:00:06;98487.53;;;10.90;89.58
13952;BME280;39535;52.192;9.886;2023-04-01T00:02:33;98490.16;;;10.90;89.53
13952;BME280;39535;52.192;9.886;2023-04-01T00:04:59;98496.78;;;10.80;88.94
13952;BME280;39535;52.192;9.886;2023-04-01T00:07:26;98503.91;;;10.76;88.52
13952;BME280;39535;52.192;9.886;2023-04-01T00:09:53;98506.53;;;10.76;89.23
13952;BME280;39535;52.192;9.886;2023-04-01T00:12:19;98508.69;;;10.68;88.44
13952;BME280;39535;52.192;9.886;2023-04-01T00:14:46;98513.91;;;10.68;88.58
13952;BME280;39535;52.192;9.886;2023-04-01T00:17:13;98510.97;;;10.74;88.83
13952;BME280;39535;52.192;9.886;2023-04-01T00:19:40;98513.38;;;10.79;88.38
13952;BME280;39535;52.192;9.886;2023-04-01T00:22:06;98518.13;;;10.70;87.99
13952;BME280;39535;52.192;9.886;2023-04-01T00:24:36;98533.69;;;10.72;87.93
13952;BME280;39535;52.192;9.886;2023-04-01T00:27:03;98528.41;;;10.73;87.96
13952;BME280;39535;52.192;9.886;2023-04-01T00:29:29;98546.22;;;10.65;87.08
13952;BME280;39535;52.192;9.886;2023-04-01T00:31:57;98530.19;;;10.73;87.78
13952;BME280;39535;52.192;9.886;2023-04-01T00:34:25;98552.34;;;10.64;87.32
13952;BME280;39535;52.192;9.886;2023-04-01T00:36:51;98541.63;;;10.70;87.25
13952;BME280;39535;52.192;9.886;2023-04-01T00:39:19;98547.50;;;10.74;87.40
13952;BME280;39535;52.192;9.886;2023-04-01T00:41:46;98541.84;;;10.66;87.40
13952;BME280;39535;52.192;9.886;2023-04-01T00:44:18;98539.47;;;10.61;87.53
13952;BME280;39535;52.192;9.886;2023-04-01T00:46:45;98541.53;;;10.55;86.69
13952;BME280;39535;52.192;9.886;2023-04-01T00:49:13;98562.69;;;10.48;86.94
13952;BME280;39535;52.192;9.886;2023-04-01T00:51:42;98549.13;;;10.59;87.34
13952;BME280;39535;52.192;9.886;2023-04-01T00:54:11;98549.97;;;10.60;86.92
13952;BME280;39535;52.192;9.886;2023-04-01T00:56:41;98560.06;;;10.48;86.33
13952;BME280;39535;52.192;9.886;2023-04-01T00:59:18;98565.03;;;10.55;86.46
13952;BME280;39535;52.192;9.886;2023-04-01T01:01:46;98573.22;;;10.47;86.68
13952;BME280;39535;52.192;9.886;2023-04-01T01:04:22;98571.22;;;10.52;87.09
13952;BME280;39535;52.192;9.886;2023-04-01T01:06:58;98563.28;;;10.36;87.38
13952;BME280;39535;52.192;9.886;2023-04-01T01:09:31;98536.91;;;10.42;87.98
13952;BME280;39535;52.192;9.886;2023-04-01T01:12:05;98526.03;;;10.51;88.35
13952;BME280;39535;52.192;9.886;2023-04-01T01:14:41;98517.97;;;10.56;88.45
13952;BME280;39535;52.192;9.886;2023-04-01T01:17:14;98522.59;;;10.51;88.41
13952;BME280;39535;52.192;9.886;2023-04-01T01:19:54;98522.50;;;10.52;88.20
13952;BME280;39535;52.192;9.886;2023-04-01T01:22:41;98515.59;;;10.51;88.34
13952;BME280;39535;52.192;9.886;2023-04-01T01:25:17;98501.41;;;10.40;89.04
13952;BME280;39535;52.192;9.886;2023-04-01T01:27:55;98486.28;;;10.46;89.70
13952;BME280;39535;52.192;9.886;2023-04-01T01:30:37;98472.84;;;10.54;89.88
13952;BME280;39535;52.192;9.886;2023-04-01T01:33:12;98455.97;;;10.61;90.55
13952;BME280;39535;52.192;9.886;2023-04-01T01:35:44;98428.19;;;10.60;91.37
13952;BME280;39535;52.192;9.886;2023-04-01T01:38:15;98416.91;;;10.60;91.53
13952;BME280;39535;52.192;9.886;2023-04-01T01:40:44;98409.56;;;10.50;91.82
13952;BME280;39535;52.192;9.886;2023-04-01T01:43:14;98403.34;;;10.53;91.84
13952;BME280;39535;52.192;9.886;2023-04-01T01:45:44;98396.97;;;10.59;91.63
13952;BME280;39535;52.192;9.886;2023-04-01T01:48:12;98410.16;;;10.56;91.72
13952;BME280;39535;52.192;9.886;2023-04-01T01:50:39;98391.06;;;10.55;92.05
13952;BME280;39535;52.192;9.886;2023-04-01T01:53:10;98411.31;;;10.50;91.41
13952;BME280;39535;52.192;9.886;2023-04-01T01:55:39;98409.66;;;10.49;92.06
13952;BME280;39535;52.192;9.886;2023-04-01T01:58:10;98408.19;;;10.43;91.58
13952;BME280;39535;52.192;9.886;2023-04-01T02:00:40;98411.56;;;10.45;90.84
13952;BME280;39535;52.192;9.886;2023-04-01T02:03:10;98410.72;;;10.45;91.46
13952;BME280;39535;52.192;9.886;2023-04-01T02:05:39;98412.41;;;10.46;91.67
13952;BME280;39535;52.192;9.886;2023-04-01T02:08:09;98415.94;;;10.45;90.94
13952;BME280;39535;52.192;9.886;2023-04-01T02:10:42;98421.06;;;10.46;91.25
13952;BME280;39535;52.192;9.886;2023-04-01T02:13:15;98418.63;;;10.43;91.74
13952;BME280;39535;52.192;9.886;2023-04-01T02:15:45;98418.63;;;10.43;91.59
13952;BME280;39535;52.192;9.886;2023-04-01T02:18:15;98436.38;;;10.37;90.87
13952;BME280;39535;52.192;9.886;2023-04-01T02:20:43;98443.19;;;10.39;90.82
13952;BME280;39535;52.192;9.886;2023-04-01T02:23:12;98450.59;;;10.29;90.71
13952;BME280;39535;52.192;9.886;2023-04-01T02:25:41;98442.72;;;10.31;91.14
13952;BME280;39535;52.192;9.886;2023-04-01T02:28:09;98447.56;;;10.39;90.67
13952;BME280;39535;52.192;9.886;2023-04-01T02:30:38;98442.78;;;10.47;90.86
13952;BME280;39535;52.192;9.886;2023-04-01T02:33:07;98437.34;;;10.51;91.41
13952;BME280;39535;52.192;9.886;2023-04-01T02:35:35;98451.31;;;10.50;90.46
13952;BME280;39535;52.192;9.886;2023-04-01T02:38:02;98452.22;;;10.49;91.16
13952;BME280;39535;52.192;9.886;2023-04-01T02:40:41;98440.31;;;10.44;91.04
13952;BME280;39535;52.192;9.886;2023-04-01T02:43:08;98439.09;;;10.51;91.23
13952;BME280;39535;52.192;9.886;2023-04-01T02:45:34;98429.13;;;10.42;91.18
13952;BME280;39535;52.192;9.886;2023-04-01T02:48:01;98428.75;;;10.49;91.03
13952;BME280;39535;52.192;9.886;2023-04-01T02:50:27;98434.66;;;10.53;91.40
13952;BME280;39535;52.192;9.886;2023-04-01T02:52:53;98420.78;;;10.52;92.41
13952;BME280;39535;52.192;9.886;2023-04-01T02:55:21;98406.09;;;10.50;92.69
13952;BME280;39535;52.192;9.886;2023-04-01T02:57:49;98396.59;;;10.49;93.47
13952;BME280;39535;52.192;9.886;2023-04-01T03:00:16;98383.38;;;10.52;93.47
13952;BME280;39535;52.192;9.886;2023-04-01T03:02:43;98385.16;;;10.51;93.17
13952;BME280;39535;52.192;9.886;2023-04-01T03:05:09;98395.75;;;10.48;92.49
13952;BME280;39535;52.192;9.886;2023-04-01T03:07:36;98402.59;;;10.51;92.31
13952;BME280;39535;52.192;9.886;2023-04-01T03:10:03;98416.72;;;10.47;92.40
13952;BME280;39535;52.192;9.886;2023-04-01T03:12:29;98399.34;;;10.46;93.43
13952;BME280;39535;52.192;9.886;2023-04-01T03:14:57;98398.84;;;10.39;93.17
13952;BME280;39535;52.192;9.886;2023-04-01T03:17:23;98396.56;;;10.33;93.32
13952;BME280;39535;52.192;9.886;2023-04-01T03:19:50;98385.81;;;10.39;93.54
13952;BME280;39535;52.192;9.886;2023-04-01T03:22:16;98388.41;;;10.39;93.56
13952;BME280;39535;52.192;9.886;2023-04-01T03:24:46;98383.88;;;10.43;93.88
13952;BME280;39535;52.192;9.886;2023-04-01T03:27:12;98376.28;;;10.38;94.68
13952;BME280;39535;52.192;9.886;2023-04-01T03:29:39;98355.59;;;10.35;95.41
13952;BME280;39535;52.192;9.886;2023-04-01T03:32:07;98350.44;;;10.33;95.21
13952;BME280;39535;52.192;9.886;2023-04-01T03:34:33;98336.94;;;10.25;96.05
13952;BME280;39535;52.192;9.886;2023-04-01T03:36:59;98337.00;;;10.24;95.68
13952;BME280;39535;52.192;9.886;2023-04-01T03:39:26;98327.72;;;10.18;96.51
13952;BME280;39535;52.192;9.886;2023-04-01T03:41:52;98328.97;;;10.11;95.98
13952;BME280;39535;52.192;9.886;2023-04-01T03:44:19;98339.78;;;10.03;95.61
13952;BME280;39535;52.192;9.886;2023-04-01T03:46:45;98343.75;;;10.10;94.87
13952;BME280;39535;52.192;9.886;2023-04-01T03:49:13;98368.69;;;10.16;94.77
13952;BME280;39535;52.192;9.886;2023-04-01T03:51:41;98394.50;;;10.21;93.23
13952;BME280;39535;52.192;9.886;2023-04-01T03:54:08;98402.94;;;10.26;93.77
13952;BME280;39535;52.192;9.886;2023-04-01T03:56:35;98397.66;;;10.27;93.64
13952;BME280;39535;52.192;9.886;2023-04-01T03:59:02;98407.06;;;10.31;93.25
13952;BME280;39535;52.192;9.886;2023-04-01T04:01:29;98417.59;;;10.28;93.05
13952;BME280;39535;52.192;9.886;2023-04-01T04:03:56;98429.50;;;10.34;92.21
13952;BME280;39535;52.192;9.886;2023-04-01T04:06:27;98438.03;;;10.38;92.41
13952;BME280;39535;52.192;9.886;2023-04-01T04:08:53;98440.50;;;10.41;92.44
13952;BME280;39535;52.192;9.886;2023-04-01T04:11:21;98449.09;;;10.43;92.28
13952;BME280;39535;52.192;9.886;2023-04-01T04:13:48;98461.06;;;10.47;91.60
13952;BME280;39535;52.192;9.886;2023-04-01T04:16:16;98476.91;;;10.42;91.06
13952;BME280;39535;52.192;9.886;2023-04-01T04:18:42;98481.81;;;10.48;91.07
13952;BME280;39535;52.192;9.886;2023-04-01T04:21:12;98480.84;;;10.51;91.70
13952;BME280;39535;52.192;9.886;2023-04-01T04:23:40;98473.16;;;10.48;92.05
13952;BME280;39535;52.192;9.886;2023-04-01T04:26:09;98457.69;;;10.45;92.36
13952;BME280;39535;52.192;9.886;2023-04-01T04:28:36;98448.91;;;10.46;92.98
13952;BME280;39535;52.192;9.886;2023-04-01T04:31:03;98450.63;;;10.47;92.44
13952;BME280;39535;52.192;9.886;2023-04-01T04:33:31;98453.22;;;10.47;92.50
13952;BME280;39535;52.192;9.886;2023-04-01T04:35:58;98455.06;;;10.45;92.77
13952;BME280;39535;52.192;9.886;2023-04-01T04:38:25;98455.84;;;10.47;92.78
13952;BME280;39535;52.192;9.886;2023-04-01T04:40:53;98452.78;;;10.39;93.52
13952;BME280;39535;52.192;9.886;2023-04-01T04:43:20;98439.50;;;10.43;93.65
13952;BME280;39535;52.192;9.886;2023-04-01T04:45:46;98435.19;;;10.42;93.50
13952;BME280;39535;52.192;9.886;2023-04-01T04:48:15;98434.22;;;10.45;93.54
13952;BME280;39535;52.192;9.886;2023-04-01T04:50:44;98431.59;;;10.45;93.19
13952;BME280;39535;52.192;9.886;2023-04-01T04:53:11;98433.34;;;10.44;93.84
13952;BME280;39535;52.192;9.886;2023-04-01T04:55:38;98427.28;;;10.44;93.97
13952;BME280;39535;52.192;9.886;2023-04-01T04:58:10;98424.84;;;10.41;94.49
13952;BME280;39535;52.192;9.886;2023-04-01T05:00:36;98421.38;;;10.40;94.57
13952;BME280;39535;52.192;9.886;2023-04-01T05:03:03;98417.16;;;10.38;94.18
13952;BME280;39535;52.192;9.886;2023-04-01T05:05:29;98415.31;;;10.40;94.56
13952;BME280;39535;52.192;9.886;2023-04-01T05:07:56;98413.66;;;10.39;94.72
13952;BME280;39535;52.192;9.886;2023-04-01T05:10:23;98414.31;;;10.42;94.63
13952;BME280;39535;52.192;9.886;2023-04-01T05:12:50;98410.81;;;10.43;94.48
13952;BME280;39535;52.192;9.886;2023-04-01T05:15:18;98400.75;;;10.36;95.11
13952;BME280;39535;52.192;9.886;2023-04-01T05:17:44;98402.66;;;10.32;95.01
13952;BME280;39535;52.192;9.886;2023-04-01T05:20:13;98398.41;;;10.31;94.78
13952;BME280;39535;52.192;9.886;2023-04-01T05:22:41;98416.94;;;10.25;94.78
13952;BME280;39535;52.192;9.886;2023-04-01T05:25:08;98401.56;;;10.19;95.43
13952;BME280;39535;52.192;9.886;2023-04-01T05:27:36;98404.03;;;10.22;95.52
13952;BME280;39535;52.192;9.886;2023-04-01T05:30:03;98405.66;;;10.07;95.27
13952;BME280;39535;52.192;9.886;2023-04-01T05:32:32;98399.81;;;10.19;95.58
13952;BME280;39535;52.192;9.886;2023-04-01T05:34:58;98393.53;;;10.23;95.75
13952;BME280;39535;52.192;9.886;2023-04-01T05:37:25;98390.84;;;10.25;96.27
13952;BME280;39535;52.192;9.886;2023-04-01T05:39:51;98388.88;;;10.30;95.81
13952;BME280;39535;52.192;9.886;2023-04-01T05:42:17;98400.06;;;10.32;95.77
13952;BME280;39535;52.192;9.886;2023-04-01T05:44:44;98396.44;;;10.34;95.66
13952;BME280;39535;52.192;9.886;2023-04-01T05:47:10;98407.50;;;10.40;95.49
13952;BME280;39535;52.192;9.886;2023-04-01T05:49:38;98406.66;;;10.39;95.52
13952;BME280;39535;52.192;9.886;2023-04-01T05:52:05;98400.38;;;10.43;95.98
13952;BME280;39535;52.192;9.886;2023-04-01T05:54:31;98409.97;;;10.43;95.51
13952;BME280;39535;52.192;9.886;2023-04-01T05:56:58;98420.16;;;10.47;94.90
13952;BME280;39535;52.192;9.886;2023-04-01T05:59:24;98432.13;;;10.51;94.35
13952;BME280;39535;52.192;9.886;2023-04-01T06:01:51;98447.44;;;10.58;93.89
13952;BME280;39535;52.192;9.886;2023-04-01T06:04:18;98449.06;;;10.60;94.34
13952;BME280;39535;52.192;9.886;2023-04-01T06:06:46;98453.50;;;10.58;94.77
13952;BME280;39535;52.192;9.886;2023-04-01T06:09:15;98450.44;;;10.50;94.43
13952;BME280;39535;52.192;9.886;2023-04-01T06:11:51;98466.47;;;10.60;94.03
13952;BME280;39535;52.192;9.886;2023-04-01T06:14:28;98459.41;;;10.62;94.64
13952;BME280;39535;52.192;9.886;2023-04-01T06:17:08;98446.22;;;10.65;95.26
13952;BME280;39535;52.192;9.886;2023-04-01T06:19:46;98449.91;;;10.61;94.81
13952;BME280;39535;52.192;9.886;2023-04-01T06:22:32;98448.75;;;10.66;94.96
13952;BME280;39535;52.192;9.886;2023-04-01T06:25:20;98456.34;;;10.71;94.59
13952;BME280;39535;52.192;9.886;2023-04-01T06:28:02;98455.97;;;10.79;94.66
13952;BME280;39535;52.192;9.886;2023-04-01T06:30:40;98461.94;;;10.81;94.62
13952;BME280;39535;52.192;9.886;2023-04-01T06:33:19;98472.31;;;10.82;93.93
13952;BME280;39535;52.192;9.886;2023-04-01T06:36:14;98487.34;;;10.77;93.77
13952;BME280;39535;52.192;9.886;2023-04-01T06:38:54;98489.88;;;10.79;93.54
13952;BME280;39535;52.192;9.886;2023-04-01T06:41:44;98501.78;;;10.84;93.34
13952;BME280;39535;52.192;9.886;2023-04-01T06:44:21;98492.25;;;10.83;93.73
13952;BME280;39535;52.192;9.886;2023-04-01T06:46:57;98502.53;;;10.86;93.14
13952;BME280;39535;52.192;9.886;2023-04-01T06:49:36;98518.72;;;10.93;92.66
13952;BME280;39535;52.192;9.886;2023-04-01T06:52:15;98526.25;;;10.82;92.72
13952;BME280;39535;52.192;9.886;2023-04-01T06:54:48;98520.03;;;10.84;93.33
13952;BME280;39535;52.192;9.886;2023-04-01T06:57:21;98514.72;;;10.86;93.73
13952;BME280;39535;52.192;9.886;2023-04-01T06:59:51;98514.66;;;10.87;93.87
13952;BME280;39535;52.192;9.886;2023-04-01T07:02:25;98509.50;;;10.86;93.90
13952;BME280;39535;52.192;9.886;2023-04-01T07:04:55;98496.13;;;10.92;93.93
13952;BME280;39535;52.192;9.886;2023-04-01T07:07:29;98497.69;;;10.96;94.38
13952;BME280;39535;52.192;9.886;2023-04-01T07:10:00;98513.44;;;10.95;93.01
13952;BME280;39535;52.192;9.886;2023-04-01T07:12:35;98467.25;;;11.12;96.73
13952;BME280;39535;52.192;9.886;2023-04-01T07:15:09;98453.59;;;11.23;96.05
13952;BME280;39535;52.192;9.886;2023-04-01T07:17:39;98463.47;;;11.34;95.13
13952;BME280;39535;52.192;9.886;2023-04-01T07:20:15;98473.34;;;11.45;94.91
13952;BME280;39535;52.192;9.886;2023-04-01T07:22:45;98470.16;;;11.56;95.38
13952;BME280;39535;52.192;9.886;2023-04-01T07:25:15;98494.78;;;11.67;94.70
13952;BME280;39535;52.192;9.886;2023-04-01T07:27:43;98504.03;;;11.73;94.11
13952;BME280;39535;52.192;9.886;2023-04-01T07:30:14;98538.75;;;11.75;92.14
13952;BME280;39535;52.192;9.886;2023-04-01T07:32:44;98588.72;;;11.53;90.63
13952;BME280;39535;52.192;9.886;2023-04-01T07:35:19;98579.31;;;11.66;92.03
13952;BME280;39535;52.192;9.886;2023-04-01T07:37:58;98604.09;;;11.59;90.13
13952;BME280;39535;52.192;9.886;2023-04-01T07:40:37;98607.94;;;11.69;91.54
13952;BME280;39535;52.192;9.886;2023-04-01T07:43:16;98637.47;;;11.54;89.80
13952;BME280;39535;52.192;9.886;2023-04-01T07:45:51;98634.47;;;11.62;91.16
13952;BME280;39535;52.192;9.886;2023-04-01T07:48:28;98601.81;;;11.69;92.15
13952;BME280;39535;52.192;9.886;2023-04-01T07:51:02;98592.31;;;11.68;92.31
13952;BME280;39535;52.192;9.886;2023-04-01T07:53:33;98602.84;;;11.66;91.94
13952;BME280;39535;52.192;9.886;2023-04-01T07:56:06;98624.66;;;11.65;91.03
13952;BME280;39535;52.192;9.886;2023-04-01T07:58:43;98627.63;;;11.75;91.01
13952;BME280;39535;52.192;9.886;2023-04-01T08:01:23;98630.69;;;11.67;88.73
13952;BME280;39535;52.192;9.886;2023-04-01T08:04:16;98695.41;;;11.27;88.47
13952;BME280;39535;52.192;9.886;2023-04-01T08:06:51;98653.91;;;11.56;91.34
13952;BME280;39535;52.192;9.886;2023-04-01T08:09:25;98636.63;;;11.53;90.50
13952;BME280;39535;52.192;9.886;2023-04-01T08:12:04;98622.09;;;11.81;91.99
13952;BME280;39535;52.192;9.886;2023-04-01T08:14:41;98617.84;;;11.96;91.37
13952;BME280;39535;52.192;9.886;2023-04-01T08:17:15;98628.72;;;12.04;90.58
13952;BME280;39535;52.192;9.886;2023-04-01T08:19:55;98613.66;;;12.25;92.72
13952;BME280;39535;52.192;9.886;2023-04-01T08:22:26;98656.94;;;12.31;89.39
13952;BME280;39535;52.192;9.886;2023-04-01T08:24:55;98689.09;;;12.33;88.78
13952;BME280;39535;52.192;9.886;2023-04-01T08:27:31;98719.81;;;12.29;87.29
13952;BME280;39535;52.192;9.886;2023-04-01T08:30:03;98782.91;;;11.90;86.23
13952;BME280;39535;52.192;9.886;2023-04-01T08:32:35;98765.88;;;11.99;88.15
13952;BME280;39535;52.192;9.886;2023-04-01T08:35:11;98792.31;;;11.75;84.67
13952;BME280;39535;52.192;9.886;2023-04-01T08:37:41;98780.94;;;11.76;87.53
13952;BME280;39535;52.192;9.886;2023-04-01T08:40:32;98769.94;;;11.87;87.16
13952;BME280;39535;52.192;9.886;2023-04-01T08:43:07;98754.72;;;11.95;88.83
13952;BME280;39535;52.192;9.886;2023-04-01T08:45:53;98729.59;;;11.92;88.01
13952;BME280;39535;52.192;9.886;2023-04-01T08:51:55;98753.78;;;12.14;86.65
13952;BME280;39535;52.192;9.886;2023-04-01T08:54:47;98777.19;;;12.32;86.61
13952;BME280;39535;52.192;9.886;2023-04-01T08:57:31;98795.88;;;12.42;86.28
13952;BME280;39535;52.192;9.886;2023-04-01T09:00:14;98822.50;;;12.17;83.21
13952;BME280;39535;52.192;9.886;2023-04-01T09:02:54;98824.22;;;12.34;85.15
13952;BME280;39535;52.192;9.886;2023-04-01T09:06:01;98811.72;;;12.57;86.39
13952;BME280;39535;52.192;9.886;2023-04-01T09:08:47;98805.72;;;12.70;86.07
13952;BME280;39535;52.192;9.886;2023-04-01T09:11:28;98827.88;;;12.81;84.84
13952;BME280;39535;52.192;9.886;2023-04-01T09:17:19;98894.66;;;12.72;82.01
13952;BME280;39535;52.192;9.886;2023-04-01T09:22:50;98910.94;;;12.95;82.99
13952;BME280;39535;52.192;9.886;2023-04-01T09:25:37;98914.81;;;13.03;82.40
13952;BME280;39535;52.192;9.886;2023-04-01T09:28:10;98986.44;;;12.69;79.83
13952;BME280;39535;52.192;9.886;2023-04-01T09:31:07;98967.41;;;12.83;81.43
13952;BME280;39535;52.192;9.886;2023-04-01T09:34:13;98940.91;;;12.89;82.41
13952;BME280;39535;52.192;9.886;2023-04-01T09:36:46;98946.31;;;13.02;82.24
13952;BME280;39535;52.192;9.886;2023-04-01T09:39:30;98984.59;;;12.71;78.30
13952;BME280;39535;52.192;9.886;2023-04-01T09:42:13;99000.38;;;12.87;81.57
13952;BME280;39535;52.192;9.886;2023-04-01T09:44:46;98989.50;;;12.95;80.32
13952;BME280;39535;52.192;9.886;2023-04-01T09:47:25;98999.66;;;13.01;79.99
13952;BME280;39535;52.192;9.886;2023-04-01T09:50:20;99018.44;;;13.09;79.76
13952;BME280;39535;52.192;9.886;2023-04-01T09:53:00;99032.66;;;13.21;80.07
13952;BME280;39535;52.192;9.886;2023-04-01T09:56:01;99025.97;;;13.15;79.30
13952;BME280;39535;52.192;9.886;2023-04-01T10:02:23;99033.50;;;13.21;81.37
13952;BME280;39535;52.192;9.886;2023-04-01T10:08:32;98983.19;;;12.81;82.68
13952;BME280;39535;52.192;9.886;2023-04-01T10:11:20;98938.44;;;12.86;84.72
13952;BME280;39535;52.192;9.886;2023-04-01T10:14:24;98929.09;;;12.98;83.63
13952;BME280;39535;52.192;9.886;2023-04-01T10:17:14;98925.03;;;13.08;82.97
13952;BME280;39535;52.192;9.886;2023-04-01T10:19:55;98931.25;;;13.23;82.90
13952;BME280;39535;52.192;9.886;2023-04-01T10:23:02;98923.00;;;13.30;83.15
13952;BME280;39535;52.192;9.886;2023-04-01T10:25:55;98957.38;;;13.24;82.01
13952;BME280;39535;52.192;9.886;2023-04-01T10:28:54;98924.59;;;13.33;83.02
13952;BME280;39535;52.192;9.886;2023-04-01T10:31:47;98986.00;;;12.94;79.17
13952;BME280;39535;52.192;9.886;2023-04-01T10:34:54;98986.44;;;12.86;81.76
13952;BME280;39535;52.192;9.886;2023-04-01T10:37:42;98940.75;;;13.08;84.43
13952;BME280;39535;52.192;9.886;2023-04-01T10:40:29;98861.34;;;13.23;86.71
13952;BME280;39535;52.192;9.886;2023-04-01T10:43:30;98886.22;;;13.32;83.77
13952;BME280;39535;52.192;9.886;2023-04-01T10:49:44;98855.28;;;13.39;85.90
13952;BME280;39535;52.192;9.886;2023-04-01T10:55:36;98832.78;;;13.50;85.72
13952;BME280;39535;52.192;9.886;2023-04-01T11:07:58;98857.91;;;13.85;84.35
13952;BME280;39535;52.192;9.886;2023-04-01T11:10:54;98892.31;;;13.95;84.13
13952;BME280;39535;52.192;9.886;2023-04-01T11:13:58;98908.44;;;14.03;83.38
13952;BME280;39535;52.192;9.886;2023-04-01T11:17:03;98952.13;;;14.04;82.14
13952;BME280;39535;52.192;9.886;2023-04-01T11:19:55;98962.66;;;13.88;82.58
13952;BME280;39535;52.192;9.886;2023-04-01T11:22:36;98929.94;;;14.09;83.55
13952;BME280;39535;52.192;9.886;2023-04-01T11:25:23;98924.34;;;14.16;84.02
13952;BME280;39535;52.192;9.886;2023-04-01T11:31:03;98921.06;;;14.26;84.02
13952;BME280;39535;52.192;9.886;2023-04-01T11:33:35;98935.63;;;14.32;82.37
13952;BME280;39535;52.192;9.886;2023-04-01T11:36:14;98976.81;;;14.16;81.91
13952;BME280;39535;52.192;9.886;2023-04-01T11:38:55;98979.38;;;14.17;82.99
13952;BME280;39535;52.192;9.886;2023-04-01T11:41:30;98975.94;;;14.31;82.09
13952;BME280;39535;52.192;9.886;2023-04-01T11:44:12;98998.63;;;14.32;81.92
13952;BME280;39535;52.192;9.886;2023-04-01T11:46:48;99021.50;;;14.30;80.23
13952;BME280;39535;52.192;9.886;2023-04-01T11:49:36;99063.41;;;14.32;79.80
13952;BME280;39535;52.192;9.886;2023-04-01T11:52:18;99102.34;;;14.39;77.77
13952;BME280;39535;52.192;9.886;2023-04-01T11:55:02;99121.16;;;14.47;78.52
13952;BME280;39535;52.192;9.886;2023-04-01T11:57:50;99143.34;;;14.42;78.02
13952;BME280;39535;52.192;9.886;2023-04-01T12:03:21;99154.59;;;14.44;77.30
13952;BME280;39535;52.192;9.886;2023-04-01T12:05:58;99157.91;;;14.32;78.23
13952;BME280;39535;52.192;9.886;2023-04-01T12:08:36;99122.69;;;14.36;80.14
13952;BME280;39535;52.192;9.886;2023-04-01T12:11:13;99091.00;;;14.39;80.70
13952;BME280;39535;52.192;9.886;2023-04-01T12:13:47;99020.34;;;14.50;83.16
13952;BME280;39535;52.192;9.886;2023-04-01T12:16:39;98992.13;;;14.54;83.12
13952;BME280;39535;52.192;9.886;2023-04-01T12:19:16;99011.34;;;14.54;81.06
13952;BME280;39535;52.192;9.886;2023-04-01T12:21:52;99056.06;;;14.53;79.25
13952;BME280;39535;52.192;9.886;2023-04-01T12:24:46;99058.50;;;14.57;80.09
13952;BME280;39535;52.192;9.886;2023-04-01T12:27:29;99082.00;;;14.59;79.61
13952;BME280;39535;52.192;9.886;2023-04-01T12:30:10;99063.19;;;14.66;80.22
13952;BME280;39535;52.192;9.886;2023-04-01T12:32:45;99093.34;;;14.75;79.22
13952;BME280;39535;52.192;9.886;2023-04-01T12:35:21;99101.63;;;14.83;79.11
13952;BME280;39535;52.192;9.886;2023-04-01T12:38:01;99116.75;;;14.94;78.11
13952;BME280;39535;52.192;9.886;2023-04-01T12:40:44;99163.97;;;14.96;76.53
13952;BME280;39535;52.192;9.886;2023-04-01T12:43:28;99195.41;;;14.97;76.39
13952;BME280;39535;52.192;9.886;2023-04-01T12:46:05;99225.69;;;15.04;75.20
13952;BME280;39535;52.192;9.886;2023-04-01T12:49:18;99225.75;;;15.03;76.01
13952;BME280;39535;52.192;9.886;2023-04-01T12:52:03;99237.19;;;15.02;75.37
13952;BME280;39535;52.192;9.886;2023-04-01T12:55:01;99280.88;;;14.88;74.16
13952;BME280;39535;52.192;9.886;2023-04-01T13:00:54;99273.50;;;14.79;75.80
13952;BME280;39535;52.192;9.886;2023-04-01T13:03:44;99261.47;;;14.75;75.76
13952;BME280;39535;52.192;9.886;2023-04-01T13:06:32;99251.88;;;14.74;75.18
13952;BME280;39535;52.192;9.886;2023-04-01T13:09:12;99266.72;;;14.75;75.80
13952;BME280;39535;52.192;9.886;2023-04-01T13:11:51;99237.22;;;14.86;77.01
13952;BME280;39535;52.192;9.886;2023-04-01T13:14:40;99244.59;;;14.95;75.38
13952;BME280;39535;52.192;9.886;2023-04-01T13:17:15;99286.28;;;15.01;74.10
13952;BME280;39535;52.192;9.886;2023-04-01T13:19:49;99305.03;;;15.11;73.37
13952;BME280;39535;52.192;9.886;2023-04-01T13:22:24;99314.44;;;15.15;73.62
13952;BME280;39535;52.192;9.886;2023-04-01T13:25:01;99329.34;;;15.15;73.49
13952;BME280;39535;52.192;9.886;2023-04-01T13:27:35;99333.50;;;15.03;74.80
13952;BME280;39535;52.192;9.886;2023-04-01T13:30:18;99323.50;;;14.94;73.77
13952;BME280;39535;52.192;9.886;2023-04-01T13:32:50;99333.72;;;14.82;73.72
13952;BME280;39535;52.192;9.886;2023-04-01T13:35:28;99334.41;;;14.70;73.83
13952;BME280;39535;52.192;9.886;2023-04-01T13:38:12;99304.41;;;14.58;76.00
13952;BME280;39535;52.192;9.886;2023-04-01T13:40:49;99257.84;;;14.44;77.36
13952;BME280;39535;52.192;9.886;2023-04-01T13:43:22;99230.25;;;14.37;77.68
13952;BME280;39535;52.192;9.886;2023-04-01T13:49:05;99145.00;;;14.11;80.08
13952;BME280;39535;52.192;9.886;2023-04-01T13:55:05;99048.78;;;13.80;83.56
13952;BME280;39535;52.192;9.886;2023-04-01T13:57:56;99027.47;;;13.70;83.75
13952;BME280;39535;52.192;9.886;2023-04-01T14:00:36;98990.97;;;13.65;84.81
13952;BME280;39535;52.192;9.886;2023-04-01T14:03:27;98967.50;;;13.64;85.72
13952;BME280;39535;52.192;9.886;2023-04-01T14:06:06;98988.47;;;13.64;83.55
13952;BME280;39535;52.192;9.886;2023-04-01T14:08:51;98982.00;;;13.54;85.02
13952;BME280;39535;52.192;9.886;2023-04-01T14:11:26;98980.34;;;13.53;84.60
13952;BME280;39535;52.192;9.886;2023-04-01T14:14:05;98988.44;;;13.32;85.57
13952;BME280;39535;52.192;9.886;2023-04-01T14:17:04;98980.59;;;13.32;85.87
13952;BME280;39535;52.192;9.886;2023-04-01T14:20:02;98979.81;;;13.30;85.65
13952;BME280;39535;52.192;9.886;2023-04-01T14:22:39;98989.03;;;13.20;85.79
13952;BME280;39535;52.192;9.886;2023-04-01T14:25:28;98977.97;;;13.15;86.08
13952;BME280;39535;52.192;9.886;2023-04-01T14:28:03;99002.72;;;13.09;85.41
13952;BME280;39535;52.192;9.886;2023-04-01T14:33:42;98991.09;;;12.97;87.01